createdAt,value
2023-02-02T00:00:19.978Z,100629.44
2023-02-02T00:02:46.823Z,100624.91
2023-02-02T00:05:13.642Z,100623.84
2023-02-02T00:07:40.497Z,100637.50
2023-02-02T00:10:07.549Z,100641.47
2023-02-02T00:12:34.345Z,100697.66
2023-02-02T00:15:01.143Z,100661.81
2023-02-02T00:17:27.964Z,100673.06
2023-02-02T00:19:54.932Z,100700.38
2023-02-02T00:22:22.077Z,100692.84
2023-02-02T00:24:48.842Z,100696.88
2023-02-02T00:27:15.633Z,100700.09
2023-02-02T00:29:42.704Z,100712.16
2023-02-02T00:32:09.500Z,100715.34
2023-02-02T00:34:36.392Z,100716.69
2023-02-02T00:37:03.488Z,100717.50
2023-02-02T00:39:30.308Z,100721.78
2023-02-02T00:41:57.488Z,100716.69
2023-02-02T00:44:43.255Z,100751.22
2023-02-02T00:47:10.373Z,100757.13
2023-02-02T00:49:37.590Z,100768.88
2023-02-02T00:52:04.416Z,100772.91
2023-02-02T00:54:31.294Z,100769.41
2023-02-02T00:56:58.109Z,100781.22
2023-02-02T00:59:25.271Z,100808.81
2023-02-02T01:01:52.129Z,100797.78
2023-02-02T01:04:18.973Z,100799.66
2023-02-02T01:06:45.850Z,100810.66
2023-02-02T01:09:12.730Z,100812.28
2023-02-02T01:11:39.657Z,100834.25
2023-02-02T01:14:06.783Z,100833.41
2023-02-02T01:16:33.685Z,100816.81
2023-02-02T01:19:00.781Z,100832.91
2023-02-02T01:21:27.636Z,100840.94
2023-02-02T01:23:54.462Z,100843.88
2023-02-02T01:26:21.599Z,100847.34
2023-02-02T01:28:48.432Z,100847.63
2023-02-02T01:31:17.706Z,100849.75
2023-02-02T01:33:45.286Z,100873.34
2023-02-02T01:36:16.877Z,100880.84
2023-02-02T01:38:43.795Z,100866.91
2023-02-02T01:41:14.511Z,100866.38
2023-02-02T01:43:41.269Z,100887.78
2023-02-02T01:46:11.108Z,100873.84
2023-02-02T01:48:38.758Z,100876.81
2023-02-02T01:51:07.796Z,100878.16
2023-02-02T01:53:34.640Z,100882.44
2023-02-02T01:56:02.828Z,100876.00
2023-02-02T01:58:31.639Z,100898.50
2023-02-02T02:00:58.545Z,100899.03
2023-02-02T02:03:26.333Z,100895.81
2023-02-02T02:05:58.410Z,100908.66
2023-02-02T02:08:52.363Z,100900.63
2023-02-02T02:11:19.996Z,100912.16
2023-02-02T02:14:05.849Z,100920.69
2023-02-02T02:16:44.903Z,100908.41
2023-02-02T02:19:29.644Z,100928.47
2023-02-02T02:22:21.135Z,100928.97
2023-02-02T02:25:09.444Z,100930.59
2023-02-02T02:27:36.317Z,100947.66
2023-02-02T02:30:15.828Z,100947.88
2023-02-02T02:32:57.654Z,100946.25
2023-02-02T02:35:33.207Z,100945.66
2023-02-02T02:38:23.957Z,100958.75
2023-02-02T02:40:54.164Z,100952.31
2023-02-02T02:43:29.289Z,100971.03
2023-02-02T02:45:56.250Z,100954.97
2023-02-02T02:48:23.377Z,100951.75
2023-02-02T02:50:50.211Z,100952.28
2023-02-02T02:53:18.833Z,100955.72
2023-02-02T02:55:48.508Z,100957.00
2023-02-02T02:58:24.290Z,100956.91
2023-02-02T03:01:05.462Z,100947.56
2023-02-02T03:03:41.964Z,100948.56
2023-02-02T03:06:15.071Z,100941.94
2023-02-02T03:08:46.283Z,100936.09
2023-02-02T03:11:14.039Z,100944.59
2023-02-02T03:13:41.588Z,100940.94
2023-02-02T03:16:09.413Z,100948.25
2023-02-02T03:18:36.447Z,100950.91
2023-02-02T03:21:04.064Z,100963.28
2023-02-02T03:23:31.018Z,100957.41
2023-02-02T03:25:58.258Z,100976.94
2023-02-02T03:28:25.552Z,100972.94
2023-02-02T03:30:53.864Z,100988.69
2023-02-02T03:33:21.577Z,100983.91
2023-02-02T03:35:48.420Z,100995.16
2023-02-02T03:38:15.181Z,100997.63
2023-02-02T03:40:42.064Z,101009.16
2023-02-02T03:43:08.922Z,101002.72
2023-02-02T03:45:36.183Z,101007.59
2023-02-02T03:48:06.213Z,101009.72
2023-02-02T03:50:33.870Z,101021.50
2023-02-02T03:53:00.653Z,101056.53
2023-02-02T03:55:27.533Z,101020.44
2023-02-02T03:57:54.676Z,101025.25
2023-02-02T04:00:21.895Z,101022.03
2023-02-02T04:02:48.733Z,101029.81
2023-02-02T04:05:15.660Z,101035.94
2023-02-02T04:07:42.474Z,101041.31
2023-02-02T04:10:09.693Z,101061.59
2023-02-02T04:12:36.816Z,101060.22
2023-02-02T04:15:04.134Z,101085.69
2023-02-02T04:17:31.023Z,101091.84
2023-02-02T04:19:58.786Z,101104.66
2023-02-02T04:22:25.822Z,101112.69
2023-02-02T04:24:52.703Z,101106.25
2023-02-02T04:27:19.894Z,101125.50
2023-02-02T04:29:46.741Z,101124.72
2023-02-02T04:32:16.852Z,101121.28
2023-02-02T04:34:44.093Z,101123.66
2023-02-02T04:37:11.499Z,101127.88
2023-02-02T04:39:38.643Z,101130.09
2023-02-02T04:42:05.561Z,101121.13
2023-02-02T04:44:32.683Z,101107.41
2023-02-02T04:46:59.504Z,101082.44
2023-02-02T04:49:26.319Z,101084.16
2023-02-02T04:51:53.101Z,101083.13
2023-02-02T04:54:20.253Z,101090.31
2023-02-02T04:56:47.129Z,101077.28
2023-02-02T04:59:13.967Z,101064.97
2023-02-02T05:01:41.340Z,101061.53
2023-02-02T05:04:08.344Z,101046.38
2023-02-02T05:06:35.255Z,101040.53
2023-02-02T05:09:02.093Z,101034.63
2023-02-02T05:11:28.984Z,101042.72
2023-02-02T05:13:56.112Z,101020.78
2023-02-02T05:16:24.263Z,101018.03
2023-02-02T05:18:52.307Z,101023.13
2023-02-02T05:21:19.495Z,101028.44
2023-02-02T05:23:46.692Z,101026.56
2023-02-02T05:26:15.943Z,101026.56
2023-02-02T05:28:43.171Z,101024.38
2023-02-02T05:31:10.103Z,101034.53
2023-02-02T05:33:37.547Z,101029.19
2023-02-02T05:36:04.726Z,101021.22
2023-02-02T05:38:31.584Z,101027.94
2023-02-02T05:40:58.431Z,101039.97
2023-02-02T05:43:26.330Z,101029.59
2023-02-02T05:45:53.697Z,101032.50
2023-02-02T05:48:20.605Z,101042.16
2023-02-02T05:50:50.082Z,101051.78
2023-02-02T05:53:16.907Z,101077.69
2023-02-02T05:55:43.771Z,101076.31
2023-02-02T05:58:10.616Z,101071.75
2023-02-02T06:00:37.817Z,101081.09
2023-02-02T06:03:04.781Z,101079.75
2023-02-02T06:05:31.676Z,101085.28
2023-02-02T06:07:58.782Z,101085.63
2023-02-02T06:10:25.577Z,101087.50
2023-02-02T06:12:52.389Z,101096.59
2023-02-02T06:15:19.272Z,101087.56
2023-02-02T06:17:46.103Z,101099.38
2023-02-02T06:20:13.238Z,101102.31
2023-02-02T06:22:40.238Z,101110.31
2023-02-02T06:25:08.734Z,101109.56
2023-02-02T06:27:35.561Z,101113.09
2023-02-02T06:30:02.367Z,101134.16
2023-02-02T06:32:29.797Z,101126.19
2023-02-02T06:34:56.595Z,101126.69
2023-02-02T06:37:23.390Z,101135.28
2023-02-02T06:39:50.188Z,101137.94
2023-02-02T06:42:21.772Z,101150.16
2023-02-02T06:44:48.783Z,101150.41
2023-02-02T06:47:15.589Z,101158.91
2023-02-02T06:49:42.450Z,101172.28
2023-02-02T06:52:09.254Z,101168.75
2023-02-02T06:54:36.106Z,101167.13
2023-02-02T06:57:02.901Z,101175.13
2023-02-02T06:59:29.718Z,101172.50
2023-02-02T07:01:56.681Z,101181.34
2023-02-02T07:04:23.798Z,101186.78
2023-02-02T07:06:50.597Z,101200.16
2023-02-02T07:09:20.656Z,101202.09
2023-02-02T07:11:47.474Z,101200.84
2023-02-02T07:14:14.382Z,101205.66
2023-02-02T07:16:41.221Z,101214.97
2023-02-02T07:19:08.178Z,101219.50
2023-02-02T07:21:37.661Z,101221.94
2023-02-02T07:24:05.415Z,101232.16
2023-02-02T07:26:33.739Z,101235.06
2023-02-02T07:29:00.700Z,101245.53
2023-02-02T07:31:28.043Z,101247.72
2023-02-02T07:33:54.984Z,101250.72
2023-02-02T07:36:23.435Z,101262.50
2023-02-02T07:38:51.091Z,101266.88
2023-02-02T07:41:17.871Z,101267.66
2023-02-02T07:43:46.550Z,101276.25
2023-02-02T07:46:14.380Z,101272.53
2023-02-02T07:48:41.525Z,101276.31
2023-02-02T07:51:10.084Z,101283.28
2023-02-02T07:53:36.901Z,101289.19
2023-02-02T07:56:06.589Z,101295.94
2023-02-02T07:58:33.403Z,101290.06
2023-02-02T08:01:00.969Z,101298.09
2023-02-02T08:03:27.835Z,101304.53
2023-02-02T08:05:54.733Z,101307.03
2023-02-02T08:08:21.506Z,101312.66
2023-02-02T08:10:49.014Z,101314.56
2023-02-02T08:13:15.837Z,101325.31
2023-02-02T08:15:42.652Z,101329.81
2023-02-02T08:18:09.480Z,101337.03
2023-02-02T08:20:36.392Z,101345.56
2023-02-02T08:23:03.236Z,101346.66
2023-02-02T08:25:29.975Z,101375.00
2023-02-02T08:27:58.720Z,101364.63
2023-02-02T08:30:25.751Z,101376.06
2023-02-02T08:32:52.577Z,101385.25
2023-02-02T08:35:19.418Z,101393.13
2023-02-02T08:37:49.435Z,101404.13
2023-02-02T08:40:16.435Z,101415.66
2023-02-02T08:42:44.085Z,101414.88
2023-02-02T08:46:02.800Z,101431.56
2023-02-02T08:48:10.728Z,101438.69
2023-02-02T08:50:39.165Z,101444.44
2023-02-02T08:53:05.952Z,101451.94
2023-02-02T09:41:37.495Z,101560.53
2023-02-02T09:44:20.080Z,101557.38
2023-02-02T09:46:56.091Z,101567.34
2023-02-02T09:49:36.635Z,101568.44
2023-02-02T09:52:07.061Z,101575.72
2023-02-02T09:54:44.903Z,101584.53
2023-02-02T09:57:26.124Z,101588.47
2023-02-02T09:59:54.243Z,101597.06
2023-02-02T10:02:23.483Z,101596.97
2023-02-02T10:04:52.223Z,101596.69
2023-02-02T10:07:21.375Z,101597.25
2023-02-02T10:09:48.311Z,101605.59
2023-02-02T10:12:33.660Z,101611.81
2023-02-02T10:15:17.804Z,101609.72
2023-02-02T10:17:44.693Z,101622.28
2023-02-02T10:20:33.467Z,101630.34
2023-02-02T10:23:06.280Z,101617.38
2023-02-02T10:25:34.401Z,101629.34
2023-02-02T10:28:06.164Z,101628.28
2023-02-02T10:30:39.903Z,101629.47
2023-02-02T10:33:07.497Z,101640.00
2023-02-02T10:35:38.942Z,101637.56
2023-02-02T10:38:12.329Z,101637.91
2023-02-02T10:40:39.151Z,101646.50
2023-02-02T10:43:33.904Z,101650.06
2023-02-02T10:46:02.107Z,101656.88
2023-02-02T10:48:35.508Z,101660.63
2023-02-02T10:51:11.126Z,101673.59
2023-02-02T10:53:38.100Z,101677.69
2023-02-02T10:56:13.118Z,101672.31
2023-02-02T10:58:52.295Z,101683.06
2023-02-02T11:01:22.706Z,101693.19
2023-02-02T11:04:09.690Z,101680.06
2023-02-02T11:06:51.954Z,101685.50
2023-02-02T11:09:24.265Z,101695.00
2023-02-02T11:11:52.451Z,101704.44
2023-02-02T11:14:28.166Z,101699.16
2023-02-02T11:17:02.511Z,101700.84
2023-02-02T11:19:30.738Z,101692.50
2023-02-02T11:21:58.893Z,101705.81
2023-02-02T11:24:25.728Z,73387.22
2023-02-02T11:26:57.844Z,73387.22
2023-02-02T11:29:28.113Z,73387.22
2023-02-02T11:31:55.438Z,73387.22
2023-02-02T11:34:23.796Z,73387.22
2023-02-02T11:37:02.905Z,73387.22
2023-02-02T11:39:30.049Z,73387.22
2023-02-02T11:42:17.052Z,73387.22
2023-02-02T11:44:48.811Z,73387.22
2023-02-02T11:47:20.231Z,73387.22
2023-02-02T11:49:47.348Z,73387.22
2023-02-02T11:52:18.190Z,73387.22
2023-02-02T11:54:47.127Z,73387.22
2023-02-02T11:57:17.696Z,73387.22
2023-02-02T11:59:45.100Z,73387.22
2023-02-02T12:02:31.300Z,73387.22
2023-02-02T12:05:10.231Z,73387.22
2023-02-02T12:07:37.674Z,73387.22
2023-02-02T12:10:14.776Z,73387.22
2023-02-02T12:13:00.278Z,73387.22
2023-02-02T12:15:47.516Z,73387.22
2023-02-02T12:18:21.517Z,73387.22
2023-02-02T12:20:51.423Z,73387.22
2023-02-02T12:23:23.563Z,73387.22
2023-02-02T12:26:05.681Z,73387.22
2023-02-02T12:28:47.806Z,73387.22
2023-02-02T12:31:38.157Z,101666.84
2023-02-02T12:34:12.003Z,101659.03
2023-02-02T12:36:57.156Z,101663.78
2023-02-02T12:39:31.974Z,73387.22
2023-02-02T12:42:17.408Z,73387.22
2023-02-02T12:44:50.968Z,73387.22
2023-02-02T12:47:27.932Z,73387.22
2023-02-02T12:50:10.049Z,73387.22
2023-02-02T12:52:53.351Z,73387.22
2023-02-02T12:55:27.538Z,73387.22
2023-02-02T12:58:12.829Z,73387.22
2023-02-02T13:00:53.403Z,73387.22
2023-02-02T13:03:38.998Z,101673.19
2023-02-02T13:06:05.797Z,101691.41
2023-02-02T13:08:32.581Z,101705.56
2023-02-02T13:11:05.963Z,73387.22
2023-02-02T13:13:38.609Z,73387.22
2023-02-02T13:16:07.628Z,73387.22
2023-02-02T13:18:56.911Z,101705.56
2023-02-02T13:21:24.757Z,101755.25
2023-02-02T13:23:53.601Z,101760.38
2023-02-02T13:26:22.281Z,101762.91
2023-02-02T13:29:01.794Z,101752.75
2023-02-02T13:31:36.987Z,101749.31
2023-02-02T13:34:22.381Z,101750.16
2023-02-02T13:36:57.663Z,101765.03
2023-02-02T13:39:32.559Z,101754.97
2023-02-02T13:42:00.052Z,101736.09
2023-02-02T13:44:35.653Z,101716.66
2023-02-02T13:47:02.814Z,73387.22
2023-02-02T13:49:31.571Z,73387.22
2023-02-02T13:52:01.511Z,73387.22
2023-02-02T13:54:34.459Z,73387.22
2023-02-02T13:57:10.091Z,73387.22
2023-02-02T13:59:56.321Z,73387.22
2023-02-02T14:02:40.569Z,73387.22
2023-02-02T14:05:09.003Z,73387.22
2023-02-02T14:07:41.980Z,73387.22
2023-02-02T14:10:20.908Z,73387.22
2023-02-02T14:12:48.041Z,73387.22
2023-02-02T14:15:15.046Z,73387.22
2023-02-02T14:17:41.983Z,73387.22
2023-02-02T14:20:27.432Z,73387.22
2023-02-02T14:22:54.604Z,73387.22
2023-02-02T14:25:34.008Z,73387.22
2023-02-02T14:28:02.371Z,73387.22
2023-02-02T14:30:33.750Z,73387.22
2023-02-02T14:33:18.951Z,73387.22
2023-02-02T14:35:45.707Z,73387.22
2023-02-02T14:38:15.096Z,73387.22
2023-02-02T14:40:45.035Z,73387.22
2023-02-02T14:43:36.861Z,73387.22
2023-02-02T14:46:12.741Z,73387.22
2023-02-02T14:48:40.453Z,73387.22
2023-02-02T14:51:16.183Z,73387.22
2023-02-02T14:53:50.905Z,73387.22
2023-02-02T14:56:18.337Z,73387.22
2023-02-02T14:58:47.920Z,73387.22
2023-02-02T15:01:17.593Z,73387.22
2023-02-02T15:03:49.114Z,73387.22
2023-02-02T15:06:30.025Z,73387.22
2023-02-02T15:09:15.705Z,101846.59
2023-02-02T15:12:03.646Z,101853.25
2023-02-02T15:14:41.691Z,101862.06
2023-02-02T15:17:17.615Z,101875.44
2023-02-02T15:19:47.784Z,101884.53
2023-02-02T15:22:26.856Z,101885.66
2023-02-02T15:24:54.094Z,101892.91
2023-02-02T15:27:22.861Z,101908.72
2023-02-02T15:29:52.995Z,101910.25
2023-02-02T15:32:22.314Z,101913.63
2023-02-02T15:34:51.106Z,101916.84
2023-02-02T15:37:23.051Z,101915.41
2023-02-02T15:39:55.971Z,101924.00
2023-02-02T15:42:43.843Z,101917.16
2023-02-02T15:45:33.304Z,101918.84
2023-02-02T15:48:01.702Z,101927.34
2023-02-02T15:50:28.677Z,101927.28
2023-02-02T15:52:55.981Z,101940.88
2023-02-02T15:55:24.664Z,101944.22
2023-02-02T15:57:55.272Z,101945.41
2023-02-02T16:00:27.886Z,101959.31
2023-02-02T16:03:01.094Z,101961.69
2023-02-02T16:05:37.206Z,101966.06
2023-02-02T16:08:11.977Z,101963.81
2023-02-02T16:10:39.011Z,101974.72
2023-02-02T16:13:05.836Z,101989.16
2023-02-02T16:15:32.995Z,101985.66
2023-02-02T16:18:10.717Z,101992.63
2023-02-02T16:20:38.253Z,101992.91
2023-02-02T16:23:07.114Z,101993.59
2023-02-02T16:25:37.253Z,101994.09
2023-02-02T16:28:04.269Z,102007.97
2023-02-02T16:30:33.302Z,102012.44
2023-02-02T16:33:20.077Z,102010.09
2023-02-02T16:35:46.970Z,102012.19
2023-02-02T16:38:14.566Z,102011.75
2023-02-02T16:40:41.590Z,102009.75
2023-02-02T16:43:21.089Z,102019.41
2023-02-02T16:45:52.655Z,102020.06
2023-02-02T16:48:26.025Z,102023.88
2023-02-02T16:51:03.473Z,102027.28
2023-02-02T16:53:30.557Z,102027.31
2023-02-02T16:56:00.226Z,102027.94
2023-02-02T16:58:27.542Z,102032.34
2023-02-02T17:01:12.263Z,102027.50
2023-02-02T17:03:45.266Z,102034.25
2023-02-02T17:06:12.233Z,102030.16
2023-02-02T17:08:40.498Z,102033.66
2023-02-02T17:11:18.777Z,102032.16
2023-02-02T17:13:45.588Z,102030.44
2023-02-02T17:16:13.753Z,102029.72
2023-02-02T17:18:40.801Z,102026.81
2023-02-02T17:21:13.813Z,102021.91
2023-02-02T17:23:41.126Z,102021.91
2023-02-02T17:26:08.929Z,102023.44
2023-02-02T17:28:37.424Z,102026.03
2023-02-02T17:31:11.775Z,102030.34
2023-02-02T17:33:39.075Z,102030.56
2023-02-02T17:36:06.089Z,102026.63
2023-02-02T17:38:32.934Z,102033.50
2023-02-02T17:41:01.719Z,102031.44
2023-02-02T17:43:31.982Z,102043.41
2023-02-02T17:45:59.037Z,102042.22
2023-02-02T17:48:26.066Z,102033.25
2023-02-02T17:50:52.924Z,102034.31
2023-02-02T17:53:20.819Z,102029.44
2023-02-02T17:55:48.309Z,102027.22
2023-02-02T17:58:17.669Z,102031.19
2023-02-02T18:00:51.755Z,102020.25
2023-02-02T18:03:23.696Z,102020.69
2023-02-02T18:05:50.882Z,102026.06
2023-02-02T18:08:17.791Z,102010.59
2023-02-02T18:10:44.959Z,102016.53
2023-02-02T18:13:14.642Z,102012.81
2023-02-02T18:15:41.987Z,102011.19
2023-02-02T18:18:08.878Z,102008.50
2023-02-02T18:20:38.620Z,102010.59
2023-02-02T18:23:05.461Z,102018.63
2023-02-02T18:25:32.330Z,102019.44
2023-02-02T18:27:59.181Z,102017.56
2023-02-02T18:30:26.497Z,102013.72
2023-02-02T18:32:53.559Z,102015.50
2023-02-02T18:35:20.643Z,102015.25
2023-02-02T18:37:50.548Z,102014.69
2023-02-02T18:40:17.991Z,102012.34
2023-02-02T18:42:44.907Z,102010.47
2023-02-02T18:45:11.855Z,102001.16
2023-02-02T18:47:41.104Z,102006.28
2023-02-02T18:50:08.795Z,101998.97
2023-02-02T18:52:35.652Z,102005.63
2023-02-02T18:55:02.505Z,102005.47
2023-02-02T18:57:30.494Z,102008.97
2023-02-02T18:59:57.360Z,101997.09
2023-02-02T19:02:25.577Z,101994.53
2023-02-02T19:05:11.092Z,102008.16
2023-02-02T19:07:56.068Z,101999.53
2023-02-02T19:10:23.880Z,102001.28
2023-02-02T19:12:54.280Z,102004.78
2023-02-02T19:15:21.175Z,102003.22
2023-02-02T19:17:50.244Z,102004.84
2023-02-02T19:20:27.960Z,101996.03
2023-02-02T19:22:59.069Z,101997.88
2023-02-02T19:25:26.264Z,101986.63
2023-02-02T19:27:53.669Z,101980.72
2023-02-02T19:30:21.684Z,101970.47
2023-02-02T19:32:48.979Z,101968.94
2023-02-02T19:35:20.640Z,101956.66
2023-02-02T19:37:48.623Z,101948.09
2023-02-02T19:40:20.407Z,101949.19
2023-02-02T19:42:49.380Z,101944.41
2023-02-02T19:45:22.482Z,101948.94
2023-02-02T19:47:51.375Z,101936.84
2023-02-02T19:50:23.434Z,101928.50
2023-02-02T19:52:50.889Z,101933.63
2023-02-02T19:55:25.658Z,101930.34
2023-02-02T19:57:53.815Z,101933.03
2023-02-02T20:00:26.987Z,101939.88
2023-02-02T20:03:05.937Z,101938.38
2023-02-02T20:05:34.703Z,101934.19
2023-02-02T20:08:05.559Z,101925.59
2023-02-02T20:10:40.457Z,101924.31
2023-02-02T20:13:15.937Z,101916.28
2023-02-02T20:15:43.030Z,101916.63
2023-02-02T20:18:19.103Z,101923.97
2023-02-02T20:20:48.476Z,101923.38
2023-02-02T20:23:22.661Z,101917.44
2023-02-02T20:25:51.659Z,101912.31
2023-02-02T20:28:32.464Z,101911.25
2023-02-02T20:31:01.683Z,101906.97
2023-02-02T20:33:28.918Z,101904.78
2023-02-02T20:35:56.796Z,101901.84
2023-02-02T20:38:28.646Z,101900.59
2023-02-02T20:40:56.389Z,101906.75
2023-02-02T20:43:26.301Z,101899.06
2023-02-02T20:45:53.526Z,101897.78
2023-02-02T20:48:23.879Z,101890.34
2023-02-02T20:50:50.776Z,101878.72
2023-02-02T20:53:17.698Z,101885.34
2023-02-02T20:55:44.698Z,101881.88
2023-02-02T20:58:12.173Z,101881.53
2023-02-02T21:00:39.144Z,101875.59
2023-02-02T21:03:06.085Z,101875.38
2023-02-02T21:05:33.088Z,101874.88
2023-02-02T21:08:04.645Z,101866.03
2023-02-02T21:10:31.837Z,101869.53
2023-02-02T21:12:59.214Z,101858.00
2023-02-02T21:15:26.350Z,101841.69
2023-02-02T21:17:53.247Z,101828.03
2023-02-02T21:20:21.786Z,101815.50
2023-02-02T21:22:48.649Z,101800.81
2023-02-02T21:25:15.623Z,101778.16
2023-02-02T21:27:44.547Z,101764.56
2023-02-02T21:30:15.236Z,101746.19
2023-02-02T21:32:42.124Z,101750.50
2023-02-02T21:35:09.264Z,101742.47
2023-02-02T21:37:38.719Z,101730.16
2023-02-02T21:40:13.798Z,101721.31
2023-02-02T21:42:45.178Z,101719.91
2023-02-02T21:45:22.082Z,101707.94
2023-02-02T21:47:54.393Z,101716.66
2023-02-02T21:50:32.431Z,101721.44
2023-02-02T21:53:21.940Z,101718.97
2023-02-02T21:55:53.646Z,101710.72
2023-02-02T21:58:20.701Z,101707.66
2023-02-02T22:00:48.049Z,101706.00
2023-02-02T22:03:35.184Z,101696.13
2023-02-02T22:06:08.981Z,101686.38
2023-02-02T22:08:37.380Z,101691.47
2023-02-02T22:11:09.914Z,101681.50
2023-02-02T22:13:36.822Z,101677.94
2023-02-02T22:16:04.135Z,101670.16
2023-02-02T22:18:34.251Z,101659.91
2023-02-02T22:21:01.316Z,101652.63
2023-02-02T22:23:28.547Z,101639.03
2023-02-02T22:25:57.780Z,101627.53
2023-02-02T22:28:29.998Z,101624.09
2023-02-02T22:30:58.864Z,101617.34
2023-02-02T22:33:29.079Z,101611.06
2023-02-02T22:35:56.040Z,101607.72
2023-02-02T22:38:24.673Z,101598.06
2023-02-02T22:40:52.148Z,101596.22
2023-02-02T22:43:26.478Z,101586.34
2023-02-02T22:45:53.453Z,101585.16
2023-02-02T22:48:20.315Z,101574.72
2023-02-02T22:50:47.863Z,101568.00
2023-02-02T22:53:15.846Z,101556.19
2023-02-02T22:55:43.871Z,101550.72
2023-02-02T22:58:12.384Z,101541.09
2023-02-02T23:00:39.779Z,101538.41
2023-02-02T23:03:07.028Z,101546.44
2023-02-02T23:05:34.201Z,101545.72
2023-02-02T23:08:01.356Z,101539.00
2023-02-02T23:10:36.725Z,101522.97
2023-02-02T23:13:04.696Z,101514.72
2023-02-02T23:15:31.842Z,101492.56
2023-02-02T23:17:59.131Z,101481.16
2023-02-02T23:20:26.442Z,101481.41
2023-02-02T23:22:54.108Z,101475.59
2023-02-02T23:25:22.350Z,101456.66
2023-02-02T23:27:49.303Z,101442.84
2023-02-02T23:30:18.946Z,101450.88
2023-02-02T23:32:46.083Z,101443.66
2023-02-02T23:35:13.033Z,101442.16
2023-02-02T23:37:39.877Z,101436.56
2023-02-02T23:40:09.772Z,101418.34
2023-02-02T23:42:37.613Z,101426.94
2023-02-02T23:45:04.993Z,101412.00
2023-02-02T23:47:35.366Z,101391.41
2023-02-02T23:50:03.299Z,101385.72
2023-02-02T23:52:31.331Z,101392.69
2023-02-02T23:54:58.945Z,101377.22
2023-02-02T23:57:27.243Z,101354.13
2023-02-02T23:59:54.187Z,101339.75
